Diamond Center, Iowa
Current Conditions -  °F | °C
As of 11:15 AM on Wednesday 26 Nov 2014 (Local Time) from KCKP Reporting Station
Light Snow Light Snow  
Wind Chill: 12°   Ceiling: 1400
Heat Index: 26°   Visibility: 1.5mi
Dew Point: 24°   Wind: 23mph
Humidity: 92%   Direction: 10°N
Pressure: 30.1"   Gusts: 31mph
Location:  42.6502°N, 95.4454°W
Report Text: KCKP 261715Z AUTO 01020G27KT 1 1/2SM -SN OVC014 M03/M04 A3010 RMK AO2 T10321044
Loading
Personal Weather Stations






























Interactive Weather Map New forecast layout! Learn more

10-Day Weather Forecast

Advertisements
Track Severe Weather on mobile